Terminal Aerodrome Forecast
Issued by NWS

Home | Current Version | Previous Version | Text Only | Print | Product List | Glossary On
Versions: 1 2 3 4 5 6 7 8 9 10 11 12 13 14 15 16
000
FTUS41 KBTV 232320
TAFMSS
TAF
KMSS 232320Z 2400/2424 21016G24KT P6SM BKN090
     FM240300 31007KT P6SM BKN060
     FM240800 36006KT P6SM BKN060
     FM241400 04007KT P6SM SCT150=

USA.gov is the U.S. government's official web portal to all federal, state and local government web resources and services.